TDR175 LJLJ-HEGN
Flight info
| Callsign | TDR175 |
|---|---|
| Flight time | 3h 18m |
| Altitude | 35000 |
| Route | MODRO DCT ADOMO DCT EDALA DCT UTOMO DCT TALAS UN130 PIVOS/N0447F370 UN130 MES UL609 RDS UL995 VANZA DCT RASDA A16 CVO L315 SOKOT SOKOT1A |
| Aircraft | A320/M-SDE3FGHIRWY/LB1 |
Departure
| Time | 2026-04-29 14:54 |
|---|---|
| Airport | Ljubljana Jože Pučnik Airport (LJLJ) |
Arrival
| Time | 2026-04-29 18:13 |
|---|---|
| Airport | Hurghada International Airport (HEGN) |
| Time | Latitude | Longitude | Altitude | Speed | Heading |
|---|---|---|---|---|---|
| 2026-04-29 14:37 | 46.23130 | 14.45228 | 1257 ft | 0 kts | 37° |
| 2026-04-29 14:48 | 46.23128 | 14.45225 | 1244 ft | 3 kts | 37° |
| 2026-04-29 14:48 | 46.23107 | 14.45203 | 1252 ft | 4 kts | 37° |
| 2026-04-29 14:48 | 46.23084 | 14.45186 | 1254 ft | 4 kts | 357° |
| 2026-04-29 14:48 | 46.23064 | 14.45198 | 1257 ft | 2 kts | 307° |
| 2026-04-29 14:49 | 46.23064 | 14.45199 | 1257 ft | 1 kts | 306° |
| 2026-04-29 14:50 | 46.23068 | 14.45191 | 1242 ft | 4 kts | 306° |
| 2026-04-29 14:50 | 46.23103 | 14.45122 | 1247 ft | 13 kts | 306° |
| 2026-04-29 14:50 | 46.23160 | 14.45011 | 1252 ft | 9 kts | 307° |
| 2026-04-29 14:51 | 46.23154 | 14.44946 | 1248 ft | 9 kts | 218° |
| 2026-04-29 14:51 | 46.23098 | 14.44886 | 1245 ft | 9 kts | 218° |
| 2026-04-29 14:51 | 46.23105 | 14.44787 | 1246 ft | 14 kts | 305° |
| 2026-04-29 14:51 | 46.23156 | 14.44686 | 1241 ft | 11 kts | 307° |
| 2026-04-29 14:52 | 46.23220 | 14.44563 | 1250 ft | 18 kts | 307° |
| 2026-04-29 14:52 | 46.23291 | 14.44425 | 1241 ft | 16 kts | 306° |
| 2026-04-29 14:52 | 46.23350 | 14.44309 | 1251 ft | 13 kts | 306° |
| 2026-04-29 14:52 | 46.23395 | 14.44219 | 1245 ft | 10 kts | 301° |
| 2026-04-29 14:53 | 46.23390 | 14.44133 | 1246 ft | 12 kts | 237° |
| 2026-04-29 14:53 | 46.23304 | 14.44082 | 1247 ft | 14 kts | 175° |
| 2026-04-29 14:53 | 46.23217 | 14.44135 | 1248 ft | 14 kts | 148° |
| 2026-04-29 14:53 | 46.23134 | 14.44274 | 1247 ft | 35 kts | 125° |
| 2026-04-29 14:54 | 46.22841 | 14.44842 | 1252 ft | 102 kts | 127° |
| 2026-04-29 14:54 | 46.22307 | 14.45888 | 1247 ft | 154 kts | 126° |
| 2026-04-29 14:54 | 46.21624 | 14.47221 | 1639 ft | 166 kts | 126° |
| 2026-04-29 14:54 | 46.20919 | 14.48562 | 2287 ft | 170 kts | 127° |
| 2026-04-29 14:55 | 46.20188 | 14.49934 | 3025 ft | 173 kts | 126° |
| 2026-04-29 14:55 | 46.19449 | 14.51374 | 3438 ft | 188 kts | 126° |
| 2026-04-29 14:55 | 46.18626 | 14.52990 | 3674 ft | 210 kts | 125° |
| 2026-04-29 14:55 | 46.17710 | 14.54784 | 3923 ft | 234 kts | 126° |
| 2026-04-29 14:56 | 46.16700 | 14.56760 | 4371 ft | 252 kts | 125° |
| 2026-04-29 14:56 | 46.15645 | 14.58826 | 5117 ft | 258 kts | 125° |
| 2026-04-29 14:56 | 46.14583 | 14.60904 | 5865 ft | 263 kts | 124° |
| 2026-04-29 14:56 | 46.13485 | 14.63045 | 6584 ft | 269 kts | 125° |
| 2026-04-29 14:57 | 46.12353 | 14.65242 | 7310 ft | 275 kts | 125° |
| 2026-04-29 14:57 | 46.11207 | 14.67467 | 8079 ft | 278 kts | 125° |
| 2026-04-29 14:57 | 46.10042 | 14.69725 | 8834 ft | 283 kts | 125° |
| 2026-04-29 14:57 | 46.08860 | 14.72023 | 9577 ft | 287 kts | 125° |
| 2026-04-29 14:58 | 46.07663 | 14.74349 | 10263 ft | 293 kts | 125° |
| 2026-04-29 14:58 | 46.06345 | 14.76735 | 10474 ft | 317 kts | 131° |
| 2026-04-29 14:58 | 46.04586 | 14.78821 | 10648 ft | 341 kts | 150° |
| 2026-04-29 14:58 | 46.02425 | 14.80383 | 11059 ft | 353 kts | 154° |
| 2026-04-29 14:59 | 46.00181 | 14.81899 | 11686 ft | 357 kts | 155° |
| 2026-04-29 14:59 | 45.97916 | 14.83421 | 12322 ft | 361 kts | 156° |
| 2026-04-29 14:59 | 45.95627 | 14.84957 | 12983 ft | 364 kts | 156° |
| 2026-04-29 14:59 | 45.93321 | 14.86503 | 13605 ft | 368 kts | 158° |
| 2026-04-29 15:00 | 45.90914 | 14.87755 | 14186 ft | 369 kts | 167° |
| 2026-04-29 15:00 | 45.89269 | 14.88411 | 14546 ft | 371 kts | 167° |
| 2026-04-29 15:00 | 45.86765 | 14.89381 | 15086 ft | 375 kts | 168° |
| 2026-04-29 15:00 | 45.84232 | 14.90358 | 15619 ft | 379 kts | 169° |
| 2026-04-29 15:01 | 45.80792 | 14.90769 | 16285 ft | 374 kts | 193° |
| 2026-04-29 15:01 | 45.78328 | 14.89662 | 16774 ft | 371 kts | 207° |
| 2026-04-29 15:01 | 45.75971 | 14.88125 | 17289 ft | 374 kts | 209° |
| 2026-04-29 15:01 | 45.73599 | 14.86545 | 17818 ft | 378 kts | 209° |
| 2026-04-29 15:02 | 45.71986 | 14.85469 | 18175 ft | 380 kts | 209° |
| 2026-04-29 15:02 | 45.69569 | 14.83857 | 18622 ft | 384 kts | 210° |
| 2026-04-29 15:02 | 45.67167 | 14.82255 | 19101 ft | 387 kts | 210° |
| 2026-04-29 15:02 | 45.64718 | 14.80623 | 19561 ft | 390 kts | 210° |
| 2026-04-29 15:03 | 45.62255 | 14.78983 | 20028 ft | 393 kts | 210° |
| 2026-04-29 15:03 | 45.59765 | 14.77325 | 20515 ft | 395 kts | 210° |
| 2026-04-29 15:03 | 45.57266 | 14.75664 | 20968 ft | 398 kts | 210° |
| 2026-04-29 15:03 | 45.54631 | 14.74358 | 21422 ft | 408 kts | 195° |
| 2026-04-29 15:04 | 45.51759 | 14.74199 | 21876 ft | 422 kts | 176° |
| 2026-04-29 15:04 | 45.48916 | 14.75391 | 22279 ft | 434 kts | 156° |
| 2026-04-29 15:04 | 45.46443 | 14.77927 | 22691 ft | 445 kts | 136° |
| 2026-04-29 15:04 | 45.44599 | 14.81500 | 23081 ft | 451 kts | 123° |
| 2026-04-29 15:05 | 45.42944 | 14.85305 | 23468 ft | 454 kts | 123° |
| 2026-04-29 15:05 | 45.41288 | 14.89146 | 23842 ft | 457 kts | 123° |
| 2026-04-29 15:05 | 45.39619 | 14.93017 | 24171 ft | 460 kts | 123° |
| 2026-04-29 15:05 | 45.37934 | 14.96898 | 24499 ft | 462 kts | 123° |
| 2026-04-29 15:06 | 45.36234 | 15.00795 | 24822 ft | 465 kts | 123° |
| 2026-04-29 15:06 | 45.34520 | 15.04705 | 25113 ft | 468 kts | 123° |
| 2026-04-29 15:06 | 45.32787 | 15.08646 | 25413 ft | 470 kts | 123° |
| 2026-04-29 15:06 | 45.31045 | 15.12594 | 25731 ft | 473 kts | 123° |
| 2026-04-29 15:07 | 45.29294 | 15.16559 | 26038 ft | 475 kts | 123° |
| 2026-04-29 15:07 | 45.27536 | 15.20539 | 26320 ft | 476 kts | 123° |
| 2026-04-29 15:07 | 45.25770 | 15.24536 | 26596 ft | 479 kts | 123° |
| 2026-04-29 15:07 | 45.24020 | 15.28500 | 26889 ft | 482 kts | 123° |
| 2026-04-29 15:08 | 45.22233 | 15.32538 | 27182 ft | 484 kts | 123° |
| 2026-04-29 15:08 | 45.20432 | 15.36593 | 27454 ft | 486 kts | 124° |
| 2026-04-29 15:08 | 45.18625 | 15.40651 | 27710 ft | 488 kts | 124° |
| 2026-04-29 15:08 | 45.16810 | 15.44725 | 27967 ft | 490 kts | 124° |
| 2026-04-29 15:09 | 45.14987 | 15.48817 | 28233 ft | 492 kts | 124° |
| 2026-04-29 15:09 | 45.13157 | 15.52922 | 28486 ft | 494 kts | 124° |
| 2026-04-29 15:09 | 45.11319 | 15.57036 | 28699 ft | 495 kts | 124° |
| 2026-04-29 15:09 | 45.09472 | 15.61165 | 28936 ft | 498 kts | 124° |
| 2026-04-29 15:10 | 45.07616 | 15.65311 | 29167 ft | 500 kts | 124° |
| 2026-04-29 15:10 | 45.05753 | 15.69470 | 29394 ft | 501 kts | 124° |
| 2026-04-29 15:10 | 45.03883 | 15.73638 | 29606 ft | 503 kts | 124° |
| 2026-04-29 15:10 | 45.02004 | 15.77819 | 29821 ft | 505 kts | 124° |
| 2026-04-29 15:11 | 45.00115 | 15.82015 | 30015 ft | 506 kts | 124° |
| 2026-04-29 15:11 | 44.98224 | 15.86205 | 30269 ft | 506 kts | 124° |
| 2026-04-29 15:11 | 44.96332 | 15.90392 | 30521 ft | 506 kts | 124° |
| 2026-04-29 15:11 | 44.94438 | 15.94573 | 30790 ft | 505 kts | 124° |
| 2026-04-29 15:12 | 44.92538 | 15.98756 | 31052 ft | 504 kts | 124° |
| 2026-04-29 15:12 | 44.90645 | 16.02918 | 31305 ft | 504 kts | 124° |
| 2026-04-29 15:12 | 44.88753 | 16.07076 | 31558 ft | 502 kts | 124° |
| 2026-04-29 15:12 | 44.86863 | 16.11222 | 31759 ft | 503 kts | 124° |
| 2026-04-29 15:13 | 44.84975 | 16.15367 | 31996 ft | 503 kts | 124° |
| 2026-04-29 15:13 | 44.83087 | 16.19514 | 32238 ft | 503 kts | 124° |
| 2026-04-29 15:13 | 44.81220 | 16.23607 | 32471 ft | 502 kts | 124° |
| 2026-04-29 15:13 | 44.79329 | 16.27741 | 32714 ft | 502 kts | 124° |
| 2026-04-29 15:14 | 44.77434 | 16.31867 | 32950 ft | 501 kts | 124° |
| 2026-04-29 15:14 | 44.75537 | 16.35986 | 33184 ft | 501 kts | 124° |
| 2026-04-29 15:14 | 44.73644 | 16.40100 | 33430 ft | 500 kts | 124° |
| 2026-04-29 15:14 | 44.71758 | 16.44197 | 33632 ft | 500 kts | 124° |
| 2026-04-29 15:15 | 44.69870 | 16.48298 | 33866 ft | 499 kts | 124° |
| 2026-04-29 15:15 | 44.67980 | 16.52397 | 34113 ft | 498 kts | 124° |
| 2026-04-29 15:15 | 44.66094 | 16.56468 | 34333 ft | 498 kts | 125° |
| 2026-04-29 15:15 | 44.64201 | 16.60547 | 34529 ft | 498 kts | 124° |
| 2026-04-29 15:16 | 44.62312 | 16.64609 | 34724 ft | 498 kts | 125° |
| 2026-04-29 15:16 | 44.60422 | 16.68677 | 34924 ft | 497 kts | 125° |
| 2026-04-29 15:16 | 44.58531 | 16.72745 | 35109 ft | 497 kts | 125° |
| 2026-04-29 15:17 | 44.54779 | 16.80801 | 35192 ft | 496 kts | 125° |
| 2026-04-29 15:17 | 44.51000 | 16.88899 | 35179 ft | 496 kts | 125° |
| 2026-04-29 15:18 | 44.47207 | 16.96981 | 35189 ft | 497 kts | 125° |
| 2026-04-29 15:18 | 44.43405 | 17.05056 | 35181 ft | 497 kts | 126° |
| 2026-04-29 15:19 | 44.39597 | 17.13117 | 35176 ft | 497 kts | 126° |
| 2026-04-29 15:19 | 44.35784 | 17.21190 | 35170 ft | 497 kts | 126° |
| 2026-04-29 15:20 | 44.31969 | 17.29254 | 35161 ft | 498 kts | 126° |
| 2026-04-29 15:20 | 44.28140 | 17.37309 | 35158 ft | 497 kts | 126° |
| 2026-04-29 15:21 | 44.24312 | 17.45338 | 35153 ft | 497 kts | 126° |
| 2026-04-29 15:21 | 44.20115 | 17.52869 | 35146 ft | 493 kts | 135° |
| 2026-04-29 15:22 | 44.15526 | 17.59979 | 35141 ft | 493 kts | 135° |
| 2026-04-29 15:22 | 44.10937 | 17.67083 | 35130 ft | 494 kts | 135° |
| 2026-04-29 15:23 | 44.06352 | 17.74188 | 35119 ft | 493 kts | 135° |
| 2026-04-29 15:23 | 44.01766 | 17.81286 | 35124 ft | 493 kts | 135° |
| 2026-04-29 15:24 | 43.97175 | 17.88360 | 35111 ft | 493 kts | 135° |
| 2026-04-29 15:24 | 43.92581 | 17.95413 | 35114 ft | 493 kts | 135° |
| 2026-04-29 15:25 | 43.87994 | 18.02428 | 35107 ft | 493 kts | 135° |
| 2026-04-29 15:25 | 43.83379 | 18.09465 | 35106 ft | 493 kts | 135° |
| 2026-04-29 15:26 | 43.78774 | 18.16508 | 35106 ft | 493 kts | 135° |
| 2026-04-29 15:26 | 43.74163 | 18.23536 | 35112 ft | 493 kts | 135° |
| 2026-04-29 15:27 | 43.69543 | 18.30536 | 35110 ft | 493 kts | 135° |
| 2026-04-29 15:27 | 43.64909 | 18.37530 | 35104 ft | 493 kts | 135° |
| 2026-04-29 15:28 | 43.60281 | 18.44527 | 35090 ft | 493 kts | 135° |
| 2026-04-29 15:28 | 43.55686 | 18.51453 | 35072 ft | 491 kts | 135° |
| 2026-04-29 15:29 | 43.51041 | 18.58425 | 35058 ft | 493 kts | 136° |
| 2026-04-29 15:30 | 43.41742 | 18.72349 | 35050 ft | 493 kts | 135° |
| 2026-04-29 15:30 | 43.37096 | 18.79279 | 35052 ft | 492 kts | 136° |
| 2026-04-29 15:31 | 43.32445 | 18.86193 | 35061 ft | 493 kts | 135° |
| 2026-04-29 15:31 | 43.27789 | 18.93105 | 35059 ft | 492 kts | 136° |
| 2026-04-29 15:32 | 43.23159 | 18.99951 | 35062 ft | 492 kts | 136° |
| 2026-04-29 15:32 | 43.18504 | 19.06827 | 35060 ft | 492 kts | 136° |
| 2026-04-29 15:33 | 43.13847 | 19.13687 | 35059 ft | 492 kts | 136° |
| 2026-04-29 15:33 | 43.09187 | 19.20544 | 35060 ft | 491 kts | 136° |
| 2026-04-29 15:34 | 43.04524 | 19.27383 | 35060 ft | 491 kts | 136° |
| 2026-04-29 15:34 | 42.99849 | 19.34211 | 35060 ft | 491 kts | 136° |
| 2026-04-29 15:35 | 42.95203 | 19.40978 | 35058 ft | 491 kts | 136° |
| 2026-04-29 15:35 | 42.90525 | 19.47785 | 35054 ft | 491 kts | 136° |
| 2026-04-29 15:36 | 42.85855 | 19.54580 | 35061 ft | 491 kts | 136° |
| 2026-04-29 15:36 | 42.81172 | 19.61374 | 35060 ft | 491 kts | 136° |
| 2026-04-29 15:37 | 42.76493 | 19.68142 | 35063 ft | 491 kts | 136° |
| 2026-04-29 15:37 | 42.71793 | 19.74904 | 35062 ft | 491 kts | 136° |
| 2026-04-29 15:38 | 42.67091 | 19.81661 | 35073 ft | 491 kts | 136° |
| 2026-04-29 15:38 | 42.62402 | 19.88331 | 35072 ft | 491 kts | 137° |
| 2026-04-29 15:39 | 42.57588 | 19.94894 | 35064 ft | 490 kts | 138° |
| 2026-04-29 15:39 | 42.52740 | 20.01400 | 35064 ft | 490 kts | 138° |
| 2026-04-29 15:40 | 42.47898 | 20.07930 | 35059 ft | 490 kts | 138° |
| 2026-04-29 15:40 | 42.43080 | 20.14451 | 35060 ft | 490 kts | 138° |
| 2026-04-29 15:41 | 42.38256 | 20.20971 | 35048 ft | 489 kts | 138° |
| 2026-04-29 15:41 | 42.33462 | 20.27425 | 35048 ft | 489 kts | 138° |
| 2026-04-29 15:42 | 42.28634 | 20.33913 | 35043 ft | 489 kts | 138° |
| 2026-04-29 15:42 | 42.23794 | 20.40386 | 35048 ft | 489 kts | 138° |
| 2026-04-29 15:43 | 42.18953 | 20.46841 | 35054 ft | 489 kts | 138° |
| 2026-04-29 15:43 | 42.14155 | 20.53245 | 35058 ft | 488 kts | 138° |
| 2026-04-29 15:44 | 42.09324 | 20.59681 | 35053 ft | 488 kts | 138° |
| 2026-04-29 15:44 | 42.04486 | 20.66106 | 35054 ft | 488 kts | 138° |
| 2026-04-29 15:45 | 41.99644 | 20.72517 | 35049 ft | 488 kts | 138° |
| 2026-04-29 15:45 | 41.94800 | 20.78915 | 35042 ft | 487 kts | 138° |
| 2026-04-29 15:46 | 41.89955 | 20.85299 | 35033 ft | 487 kts | 138° |
| 2026-04-29 15:46 | 41.85139 | 20.91636 | 35030 ft | 487 kts | 138° |
| 2026-04-29 15:47 | 41.80300 | 20.97994 | 35025 ft | 487 kts | 138° |
| 2026-04-29 15:47 | 41.75451 | 21.04330 | 35013 ft | 486 kts | 138° |
| 2026-04-29 15:48 | 41.70608 | 21.10661 | 35007 ft | 486 kts | 138° |
| 2026-04-29 15:48 | 41.65767 | 21.16987 | 34999 ft | 485 kts | 138° |
| 2026-04-29 15:49 | 41.60953 | 21.23249 | 34996 ft | 485 kts | 138° |
| 2026-04-29 15:49 | 41.56108 | 21.29535 | 34997 ft | 485 kts | 138° |
| 2026-04-29 15:50 | 41.51272 | 21.35801 | 34990 ft | 484 kts | 138° |
| 2026-04-29 15:50 | 41.46433 | 21.42044 | 34993 ft | 484 kts | 138° |
| 2026-04-29 15:51 | 41.41593 | 21.48285 | 34988 ft | 484 kts | 138° |
| 2026-04-29 15:51 | 41.37570 | 21.53473 | 34993 ft | 484 kts | 138° |
| 2026-04-29 15:52 | 41.32732 | 21.59687 | 34997 ft | 483 kts | 138° |
| 2026-04-29 15:52 | 41.27888 | 21.65889 | 34992 ft | 483 kts | 138° |
| 2026-04-29 15:53 | 41.23043 | 21.72075 | 35002 ft | 483 kts | 138° |
| 2026-04-29 15:53 | 41.18198 | 21.78265 | 35004 ft | 483 kts | 138° |
| 2026-04-29 15:54 | 41.13451 | 21.84590 | 35012 ft | 483 kts | 135° |
| 2026-04-29 15:54 | 41.08945 | 21.91220 | 35026 ft | 485 kts | 133° |
| 2026-04-29 15:55 | 41.04476 | 21.97908 | 35032 ft | 484 kts | 133° |
| 2026-04-29 15:55 | 40.99976 | 22.04480 | 35039 ft | 484 kts | 134° |
| 2026-04-29 15:56 | 40.95376 | 22.11069 | 35046 ft | 484 kts | 134° |
| 2026-04-29 15:56 | 40.90834 | 22.17556 | 35050 ft | 484 kts | 134° |
| 2026-04-29 15:57 | 40.86267 | 22.24109 | 35054 ft | 484 kts | 134° |
| 2026-04-29 15:57 | 40.81711 | 22.30644 | 35050 ft | 483 kts | 134° |
| 2026-04-29 15:58 | 40.77142 | 22.37171 | 35050 ft | 483 kts | 134° |
| 2026-04-29 15:58 | 40.72575 | 22.43670 | 35054 ft | 483 kts | 134° |
| 2026-04-29 15:59 | 40.68042 | 22.50115 | 35056 ft | 482 kts | 134° |
| 2026-04-29 15:59 | 40.63483 | 22.56602 | 35058 ft | 482 kts | 134° |
| 2026-04-29 16:00 | 40.58924 | 22.63062 | 35060 ft | 482 kts | 134° |
| 2026-04-29 16:00 | 40.54351 | 22.69514 | 35062 ft | 481 kts | 134° |
| 2026-04-29 16:01 | 40.49788 | 22.75940 | 35055 ft | 481 kts | 134° |
| 2026-04-29 16:01 | 40.45219 | 22.82375 | 35052 ft | 481 kts | 134° |
| 2026-04-29 16:02 | 40.40635 | 22.88802 | 35055 ft | 481 kts | 134° |
| 2026-04-29 16:02 | 40.36085 | 22.95169 | 35052 ft | 481 kts | 134° |
| 2026-04-29 16:03 | 40.31513 | 23.01583 | 35053 ft | 482 kts | 134° |
| 2026-04-29 16:03 | 40.26925 | 23.07996 | 35064 ft | 481 kts | 134° |
| 2026-04-29 16:04 | 40.22319 | 23.14399 | 35062 ft | 481 kts | 134° |
| 2026-04-29 16:04 | 40.17728 | 23.20766 | 35060 ft | 481 kts | 134° |
| 2026-04-29 16:05 | 40.13173 | 23.27088 | 35062 ft | 480 kts | 134° |
| 2026-04-29 16:05 | 40.08585 | 23.33441 | 35059 ft | 480 kts | 135° |
| 2026-04-29 16:06 | 40.03987 | 23.39788 | 35064 ft | 480 kts | 134° |
| 2026-04-29 16:06 | 39.99405 | 23.46103 | 35059 ft | 478 kts | 135° |
| 2026-04-29 16:07 | 39.94814 | 23.52403 | 35058 ft | 479 kts | 135° |
| 2026-04-29 16:07 | 39.90221 | 23.58699 | 35060 ft | 479 kts | 135° |
| 2026-04-29 16:08 | 39.85648 | 23.64950 | 35056 ft | 479 kts | 135° |
| 2026-04-29 16:08 | 39.81058 | 23.71221 | 35055 ft | 479 kts | 135° |
| 2026-04-29 16:09 | 39.76467 | 23.77488 | 35066 ft | 479 kts | 135° |
| 2026-04-29 16:09 | 39.71866 | 23.83745 | 35071 ft | 479 kts | 135° |
| 2026-04-29 16:10 | 39.67266 | 23.89991 | 35059 ft | 478 kts | 135° |
| 2026-04-29 16:10 | 39.62667 | 23.96228 | 35061 ft | 478 kts | 135° |
| 2026-04-29 16:11 | 39.58073 | 24.02442 | 35058 ft | 478 kts | 135° |
| 2026-04-29 16:11 | 39.53460 | 24.08669 | 35070 ft | 478 kts | 135° |
| 2026-04-29 16:12 | 39.48853 | 24.14868 | 35060 ft | 477 kts | 135° |
| 2026-04-29 16:12 | 39.44275 | 24.21014 | 35064 ft | 477 kts | 135° |
| 2026-04-29 16:13 | 39.39669 | 24.27195 | 35067 ft | 477 kts | 135° |
| 2026-04-29 16:13 | 39.35058 | 24.33366 | 35061 ft | 477 kts | 135° |
| 2026-04-29 16:14 | 39.30448 | 24.39527 | 35057 ft | 477 kts | 135° |
| 2026-04-29 16:14 | 39.25833 | 24.45684 | 35067 ft | 477 kts | 135° |
| 2026-04-29 16:15 | 39.21220 | 24.51821 | 35068 ft | 477 kts | 135° |
| 2026-04-29 16:15 | 39.16598 | 24.57952 | 35057 ft | 477 kts | 135° |
| 2026-04-29 16:16 | 39.11975 | 24.64080 | 35061 ft | 476 kts | 135° |
| 2026-04-29 16:16 | 39.07357 | 24.70195 | 35062 ft | 476 kts | 135° |
| 2026-04-29 16:17 | 39.02756 | 24.76271 | 35073 ft | 476 kts | 135° |
| 2026-04-29 16:17 | 38.98130 | 24.82348 | 35071 ft | 476 kts | 135° |
| 2026-04-29 16:18 | 38.93503 | 24.88430 | 35069 ft | 475 kts | 135° |
| 2026-04-29 16:18 | 38.88879 | 24.94495 | 35070 ft | 475 kts | 135° |
| 2026-04-29 16:19 | 38.84258 | 25.00548 | 35066 ft | 474 kts | 135° |
| 2026-04-29 16:19 | 38.79628 | 25.06597 | 35073 ft | 474 kts | 135° |
| 2026-04-29 16:20 | 38.75000 | 25.12624 | 35071 ft | 474 kts | 135° |
| 2026-04-29 16:20 | 38.70380 | 25.18637 | 35068 ft | 474 kts | 135° |
| 2026-04-29 16:21 | 38.65756 | 25.24652 | 35068 ft | 473 kts | 135° |
| 2026-04-29 16:21 | 38.61132 | 25.30653 | 35067 ft | 473 kts | 135° |
| 2026-04-29 16:22 | 38.56498 | 25.36642 | 35066 ft | 473 kts | 135° |
| 2026-04-29 16:22 | 38.51875 | 25.42613 | 35064 ft | 473 kts | 135° |
| 2026-04-29 16:23 | 38.47257 | 25.48571 | 35063 ft | 472 kts | 135° |
| 2026-04-29 16:23 | 38.42664 | 25.54490 | 35060 ft | 472 kts | 136° |
| 2026-04-29 16:24 | 38.38034 | 25.60428 | 35057 ft | 472 kts | 136° |
| 2026-04-29 16:24 | 38.33407 | 25.66344 | 35055 ft | 472 kts | 136° |
| 2026-04-29 16:25 | 38.28783 | 25.72259 | 35050 ft | 471 kts | 136° |
| 2026-04-29 16:25 | 38.24152 | 25.78175 | 35051 ft | 471 kts | 136° |
| 2026-04-29 16:26 | 38.19524 | 25.84072 | 35048 ft | 471 kts | 136° |
| 2026-04-29 16:26 | 38.14889 | 25.89966 | 35044 ft | 471 kts | 136° |
| 2026-04-29 16:27 | 38.10259 | 25.95852 | 35044 ft | 471 kts | 136° |
| 2026-04-29 16:27 | 38.05649 | 26.01698 | 35059 ft | 472 kts | 136° |
| 2026-04-29 16:27 | 38.03326 | 26.04641 | 35234 ft | 472 kts | 136° |
| 2026-04-29 16:28 | 38.00996 | 26.07585 | 35417 ft | 472 kts | 136° |
| 2026-04-29 16:28 | 37.98666 | 26.10521 | 35594 ft | 472 kts | 136° |
| 2026-04-29 16:28 | 37.96339 | 26.13455 | 35769 ft | 472 kts | 136° |
| 2026-04-29 16:28 | 37.94002 | 26.16397 | 35935 ft | 472 kts | 136° |
| 2026-04-29 16:29 | 37.91660 | 26.19338 | 36098 ft | 472 kts | 136° |
| 2026-04-29 16:29 | 37.89328 | 26.22267 | 36253 ft | 473 kts | 136° |
| 2026-04-29 16:29 | 37.86997 | 26.25201 | 36410 ft | 473 kts | 136° |
| 2026-04-29 16:29 | 37.84669 | 26.28133 | 36559 ft | 473 kts | 136° |
| 2026-04-29 16:30 | 37.82332 | 26.31071 | 36702 ft | 473 kts | 136° |
| 2026-04-29 16:30 | 37.79995 | 26.34003 | 36835 ft | 472 kts | 137° |
| 2026-04-29 16:30 | 37.77691 | 26.36880 | 36995 ft | 472 kts | 137° |
| 2026-04-29 16:31 | 37.73001 | 26.42726 | 37036 ft | 473 kts | 137° |
| 2026-04-29 16:31 | 37.68327 | 26.48559 | 37037 ft | 473 kts | 137° |
| 2026-04-29 16:32 | 37.63649 | 26.54392 | 37024 ft | 472 kts | 137° |
| 2026-04-29 16:32 | 37.58965 | 26.60221 | 37021 ft | 472 kts | 137° |
| 2026-04-29 16:33 | 37.51933 | 26.68945 | 37014 ft | 472 kts | 137° |
| 2026-04-29 16:33 | 37.47248 | 26.74748 | 37004 ft | 472 kts | 137° |
| 2026-04-29 16:34 | 37.42587 | 26.80499 | 37013 ft | 472 kts | 137° |
| 2026-04-29 16:34 | 37.37883 | 26.86266 | 37013 ft | 472 kts | 137° |
| 2026-04-29 16:35 | 37.33135 | 26.91960 | 37012 ft | 472 kts | 138° |
| 2026-04-29 16:35 | 37.28359 | 26.97621 | 37007 ft | 472 kts | 138° |
| 2026-04-29 16:36 | 37.23597 | 27.03280 | 37005 ft | 471 kts | 138° |
| 2026-04-29 16:36 | 37.18865 | 27.08917 | 37001 ft | 471 kts | 138° |
| 2026-04-29 16:37 | 37.14099 | 27.14578 | 37006 ft | 472 kts | 138° |
| 2026-04-29 16:37 | 37.10130 | 27.19285 | 36999 ft | 472 kts | 138° |
| 2026-04-29 16:38 | 37.05364 | 27.24923 | 36995 ft | 472 kts | 138° |
| 2026-04-29 16:38 | 36.99811 | 27.31482 | 36999 ft | 472 kts | 138° |
| 2026-04-29 16:39 | 36.95032 | 27.37115 | 36996 ft | 472 kts | 138° |
| 2026-04-29 16:39 | 36.91052 | 27.41795 | 36995 ft | 472 kts | 138° |
| 2026-04-29 16:40 | 36.86266 | 27.47410 | 36997 ft | 472 kts | 138° |
| 2026-04-29 16:40 | 36.81497 | 27.53013 | 36991 ft | 472 kts | 138° |
| 2026-04-29 16:41 | 36.76701 | 27.58634 | 36986 ft | 472 kts | 138° |
| 2026-04-29 16:41 | 36.71910 | 27.64228 | 36989 ft | 472 kts | 138° |
| 2026-04-29 16:42 | 36.67106 | 27.69837 | 36985 ft | 472 kts | 138° |
| 2026-04-29 16:42 | 36.62341 | 27.75393 | 36979 ft | 473 kts | 139° |
| 2026-04-29 16:43 | 36.57528 | 27.80980 | 36976 ft | 473 kts | 139° |
| 2026-04-29 16:43 | 36.52712 | 27.86563 | 36969 ft | 473 kts | 139° |
| 2026-04-29 16:44 | 36.47901 | 27.92147 | 36968 ft | 474 kts | 139° |
| 2026-04-29 16:44 | 36.43077 | 27.97727 | 36968 ft | 474 kts | 139° |
| 2026-04-29 16:45 | 36.38247 | 28.03292 | 36967 ft | 474 kts | 139° |
| 2026-04-29 16:45 | 36.33428 | 28.08871 | 36968 ft | 474 kts | 137° |
| 2026-04-29 16:46 | 36.28843 | 28.14768 | 36966 ft | 475 kts | 134° |
| 2026-04-29 16:46 | 36.24467 | 28.20858 | 36974 ft | 476 kts | 133° |
| 2026-04-29 16:47 | 36.20044 | 28.26952 | 36978 ft | 476 kts | 134° |
| 2026-04-29 16:47 | 36.15541 | 28.32962 | 36984 ft | 476 kts | 135° |
| 2026-04-29 16:48 | 36.11011 | 28.38939 | 36985 ft | 476 kts | 135° |
| 2026-04-29 16:48 | 36.06491 | 28.44928 | 36991 ft | 476 kts | 134° |
| 2026-04-29 16:49 | 36.01972 | 28.50923 | 36994 ft | 477 kts | 134° |
| 2026-04-29 16:49 | 35.97447 | 28.56909 | 36997 ft | 477 kts | 135° |
| 2026-04-29 16:50 | 35.92917 | 28.62894 | 36996 ft | 477 kts | 135° |
| 2026-04-29 16:50 | 35.88410 | 28.68827 | 36999 ft | 477 kts | 135° |
| 2026-04-29 16:51 | 35.83721 | 28.74603 | 37003 ft | 476 kts | 138° |
| 2026-04-29 16:51 | 35.78886 | 28.80179 | 37003 ft | 476 kts | 139° |
| 2026-04-29 16:52 | 35.74050 | 28.85753 | 37004 ft | 476 kts | 138° |
| 2026-04-29 16:52 | 35.69244 | 28.91388 | 37004 ft | 476 kts | 138° |
| 2026-04-29 16:53 | 35.64465 | 28.97030 | 37008 ft | 476 kts | 138° |
| 2026-04-29 16:53 | 35.59678 | 29.02663 | 37009 ft | 476 kts | 138° |
| 2026-04-29 16:54 | 35.54880 | 29.08281 | 37006 ft | 476 kts | 138° |
| 2026-04-29 16:54 | 35.50086 | 29.13889 | 37011 ft | 476 kts | 138° |
| 2026-04-29 16:55 | 35.45271 | 29.19485 | 37005 ft | 476 kts | 138° |
| 2026-04-29 16:55 | 35.40460 | 29.25078 | 37012 ft | 476 kts | 138° |
| 2026-04-29 16:56 | 35.35684 | 29.30633 | 37009 ft | 477 kts | 138° |
| 2026-04-29 16:56 | 35.30863 | 29.36223 | 37005 ft | 477 kts | 138° |
| 2026-04-29 16:57 | 35.26043 | 29.41806 | 37010 ft | 477 kts | 138° |
| 2026-04-29 16:57 | 35.21219 | 29.47378 | 37013 ft | 477 kts | 139° |
| 2026-04-29 16:58 | 35.16456 | 29.52871 | 37004 ft | 471 kts | 139° |
| 2026-04-29 16:58 | 35.11655 | 29.58402 | 37016 ft | 476 kts | 139° |
| 2026-04-29 16:59 | 35.06836 | 29.63951 | 37005 ft | 477 kts | 139° |
| 2026-04-29 16:59 | 35.01993 | 29.69510 | 37012 ft | 478 kts | 139° |
| 2026-04-29 17:00 | 34.97146 | 29.75067 | 37008 ft | 478 kts | 139° |
| 2026-04-29 17:00 | 34.92337 | 29.80654 | 37006 ft | 478 kts | 138° |
| 2026-04-29 17:01 | 34.87579 | 29.86235 | 37004 ft | 478 kts | 138° |
| 2026-04-29 17:01 | 34.82756 | 29.91878 | 37003 ft | 478 kts | 138° |
| 2026-04-29 17:02 | 34.77977 | 29.97427 | 37010 ft | 478 kts | 140° |
| 2026-04-29 17:02 | 34.72516 | 30.01902 | 37007 ft | 472 kts | 158° |
| 2026-04-29 17:03 | 34.66592 | 30.05359 | 37005 ft | 473 kts | 157° |
| 2026-04-29 17:03 | 34.60671 | 30.08833 | 37023 ft | 473 kts | 157° |
| 2026-04-29 17:04 | 34.54732 | 30.12303 | 37018 ft | 473 kts | 157° |
| 2026-04-29 17:04 | 34.48783 | 30.15697 | 37020 ft | 473 kts | 159° |
| 2026-04-29 17:05 | 34.42712 | 30.18746 | 37024 ft | 472 kts | 162° |
| 2026-04-29 17:05 | 34.36591 | 30.21625 | 37021 ft | 472 kts | 162° |
| 2026-04-29 17:06 | 34.30475 | 30.24571 | 37029 ft | 473 kts | 161° |
| 2026-04-29 17:06 | 34.24419 | 30.27567 | 37028 ft | 473 kts | 161° |
| 2026-04-29 17:07 | 34.18321 | 30.30583 | 37025 ft | 473 kts | 161° |
| 2026-04-29 17:07 | 34.12211 | 30.33587 | 37020 ft | 474 kts | 161° |
| 2026-04-29 17:08 | 34.06100 | 30.36564 | 37025 ft | 474 kts | 161° |
| 2026-04-29 17:08 | 33.99981 | 30.39541 | 37022 ft | 474 kts | 161° |
| 2026-04-29 17:09 | 33.93870 | 30.42523 | 37021 ft | 474 kts | 161° |
| 2026-04-29 17:09 | 33.87754 | 30.45498 | 37022 ft | 474 kts | 161° |
| 2026-04-29 17:10 | 33.81635 | 30.48483 | 37023 ft | 475 kts | 162° |
| 2026-04-29 17:10 | 33.75504 | 30.51461 | 37022 ft | 475 kts | 162° |
| 2026-04-29 17:11 | 33.69376 | 30.54423 | 37021 ft | 475 kts | 162° |
| 2026-04-29 17:11 | 33.63236 | 30.57386 | 37020 ft | 476 kts | 162° |
| 2026-04-29 17:12 | 33.57092 | 30.60361 | 37022 ft | 476 kts | 162° |
| 2026-04-29 17:12 | 33.51972 | 30.62838 | 37023 ft | 477 kts | 162° |
| 2026-04-29 17:13 | 33.44802 | 30.66284 | 37027 ft | 477 kts | 162° |
| 2026-04-29 17:13 | 33.38634 | 30.69249 | 37029 ft | 478 kts | 162° |
| 2026-04-29 17:14 | 33.32460 | 30.72217 | 37033 ft | 478 kts | 162° |
| 2026-04-29 17:14 | 33.26316 | 30.75153 | 37036 ft | 479 kts | 162° |
| 2026-04-29 17:15 | 33.20127 | 30.78112 | 37040 ft | 479 kts | 162° |
| 2026-04-29 17:15 | 33.13926 | 30.81080 | 37038 ft | 480 kts | 162° |
| 2026-04-29 17:16 | 33.07729 | 30.84041 | 37040 ft | 480 kts | 162° |
| 2026-04-29 17:16 | 33.01525 | 30.86992 | 37041 ft | 480 kts | 162° |
| 2026-04-29 17:17 | 32.95312 | 30.89953 | 37039 ft | 480 kts | 162° |
| 2026-04-29 17:17 | 32.89144 | 30.92885 | 37037 ft | 480 kts | 162° |
| 2026-04-29 17:18 | 32.82928 | 30.95826 | 37035 ft | 481 kts | 163° |
| 2026-04-29 17:18 | 32.76704 | 30.98771 | 37034 ft | 482 kts | 162° |
| 2026-04-29 17:19 | 32.70468 | 31.01715 | 37036 ft | 482 kts | 163° |
| 2026-04-29 17:19 | 32.64236 | 31.04659 | 37039 ft | 482 kts | 163° |
| 2026-04-29 17:20 | 32.58005 | 31.07602 | 37036 ft | 482 kts | 163° |
| 2026-04-29 17:20 | 32.51756 | 31.10541 | 37034 ft | 483 kts | 163° |
| 2026-04-29 17:21 | 32.45509 | 31.13477 | 37034 ft | 484 kts | 163° |
| 2026-04-29 17:21 | 32.39201 | 31.16430 | 37048 ft | 490 kts | 163° |
| 2026-04-29 17:22 | 32.32831 | 31.19417 | 37045 ft | 495 kts | 163° |
| 2026-04-29 17:22 | 32.26446 | 31.22406 | 37049 ft | 499 kts | 163° |
| 2026-04-29 17:23 | 32.19969 | 31.25437 | 37046 ft | 501 kts | 163° |
| 2026-04-29 17:23 | 32.13483 | 31.28455 | 37039 ft | 501 kts | 163° |
| 2026-04-29 17:24 | 32.06995 | 31.31480 | 37050 ft | 502 kts | 163° |
| 2026-04-29 17:24 | 32.00500 | 31.34501 | 37025 ft | 504 kts | 164° |
| 2026-04-29 17:25 | 31.93957 | 31.37539 | 37029 ft | 506 kts | 164° |
| 2026-04-29 17:25 | 31.87395 | 31.40583 | 37031 ft | 507 kts | 164° |
| 2026-04-29 17:26 | 31.80835 | 31.43623 | 37030 ft | 508 kts | 164° |
| 2026-04-29 17:26 | 31.74259 | 31.46663 | 37037 ft | 508 kts | 164° |
| 2026-04-29 17:27 | 31.67677 | 31.49696 | 37042 ft | 509 kts | 165° |
| 2026-04-29 17:27 | 31.61113 | 31.52715 | 37042 ft | 509 kts | 165° |
| 2026-04-29 17:28 | 31.54525 | 31.55746 | 37050 ft | 509 kts | 165° |
| 2026-04-29 17:28 | 31.47928 | 31.58783 | 37051 ft | 509 kts | 165° |
| 2026-04-29 17:29 | 31.41338 | 31.61816 | 37052 ft | 509 kts | 165° |
| 2026-04-29 17:29 | 31.35850 | 31.64324 | 37051 ft | 509 kts | 165° |
| 2026-04-29 17:30 | 31.29244 | 31.67333 | 37056 ft | 509 kts | 165° |
| 2026-04-29 17:30 | 31.22645 | 31.70347 | 37044 ft | 509 kts | 165° |
| 2026-04-29 17:31 | 31.16034 | 31.73361 | 37050 ft | 510 kts | 165° |
| 2026-04-29 17:31 | 31.09427 | 31.76371 | 37051 ft | 510 kts | 165° |
| 2026-04-29 17:32 | 31.02810 | 31.79384 | 37048 ft | 510 kts | 165° |
| 2026-04-29 17:32 | 30.96195 | 31.82382 | 37047 ft | 510 kts | 165° |
| 2026-04-29 17:33 | 30.89575 | 31.85386 | 37045 ft | 510 kts | 165° |
| 2026-04-29 17:33 | 30.82959 | 31.88388 | 37041 ft | 510 kts | 165° |
| 2026-04-29 17:34 | 30.76336 | 31.91377 | 37047 ft | 511 kts | 165° |
| 2026-04-29 17:34 | 30.69759 | 31.94350 | 37054 ft | 511 kts | 165° |
| 2026-04-29 17:35 | 30.59823 | 31.98821 | 37055 ft | 510 kts | 165° |
| 2026-04-29 17:36 | 30.53201 | 32.01792 | 37052 ft | 510 kts | 166° |
| 2026-04-29 17:36 | 30.46570 | 32.04769 | 37064 ft | 510 kts | 165° |
| 2026-04-29 17:37 | 30.39950 | 32.07741 | 37046 ft | 510 kts | 165° |
| 2026-04-29 17:37 | 30.33326 | 32.10712 | 37045 ft | 510 kts | 166° |
| 2026-04-29 17:38 | 30.26752 | 32.13650 | 37049 ft | 510 kts | 166° |
| 2026-04-29 17:38 | 30.20131 | 32.16606 | 37047 ft | 510 kts | 166° |
| 2026-04-29 17:39 | 30.13511 | 32.19555 | 37038 ft | 510 kts | 166° |
| 2026-04-29 17:39 | 30.06885 | 32.22503 | 37038 ft | 510 kts | 166° |
| 2026-04-29 17:40 | 30.00253 | 32.25446 | 37042 ft | 510 kts | 166° |
| 2026-04-29 17:40 | 29.93630 | 32.28389 | 37036 ft | 509 kts | 166° |
| 2026-04-29 17:41 | 29.87054 | 32.31294 | 37032 ft | 509 kts | 166° |
| 2026-04-29 17:41 | 29.80440 | 32.34222 | 37032 ft | 509 kts | 166° |
| 2026-04-29 17:42 | 29.73833 | 32.37144 | 37027 ft | 508 kts | 166° |
| 2026-04-29 17:42 | 29.67228 | 32.40052 | 37031 ft | 508 kts | 166° |
| 2026-04-29 17:43 | 29.60625 | 32.42965 | 37034 ft | 508 kts | 166° |
| 2026-04-29 17:43 | 29.54020 | 32.45876 | 37038 ft | 508 kts | 166° |
| 2026-04-29 17:44 | 29.47430 | 32.48777 | 37033 ft | 506 kts | 166° |
| 2026-04-29 17:44 | 29.40832 | 32.51674 | 37031 ft | 508 kts | 166° |
| 2026-04-29 17:45 | 29.34240 | 32.54559 | 37027 ft | 507 kts | 166° |
| 2026-04-29 17:45 | 29.27643 | 32.57435 | 37025 ft | 507 kts | 166° |
| 2026-04-29 17:46 | 29.21102 | 32.60290 | 37028 ft | 506 kts | 166° |
| 2026-04-29 17:46 | 29.14516 | 32.63164 | 37026 ft | 506 kts | 166° |
| 2026-04-29 17:47 | 29.07946 | 32.66035 | 37023 ft | 506 kts | 166° |
| 2026-04-29 17:47 | 29.01359 | 32.68906 | 37014 ft | 505 kts | 166° |
| 2026-04-29 17:48 | 28.94862 | 32.72017 | 37017 ft | 510 kts | 161° |
| 2026-04-29 17:48 | 28.88485 | 32.75608 | 37018 ft | 511 kts | 160° |
| 2026-04-29 17:49 | 28.82141 | 32.79279 | 37015 ft | 511 kts | 160° |
| 2026-04-29 17:49 | 28.75840 | 32.82908 | 37000 ft | 510 kts | 160° |
| 2026-04-29 17:50 | 28.69479 | 32.86513 | 37000 ft | 510 kts | 160° |
| 2026-04-29 17:50 | 28.63121 | 32.90091 | 37000 ft | 510 kts | 160° |
| 2026-04-29 17:51 | 28.56764 | 32.93679 | 36996 ft | 510 kts | 160° |
| 2026-04-29 17:51 | 28.50415 | 32.97276 | 36993 ft | 510 kts | 160° |
| 2026-04-29 17:52 | 28.44065 | 33.00868 | 36996 ft | 509 kts | 160° |
| 2026-04-29 17:52 | 28.37719 | 33.04431 | 36989 ft | 509 kts | 160° |
| 2026-04-29 17:53 | 28.31417 | 33.07969 | 36984 ft | 509 kts | 160° |
| 2026-04-29 17:53 | 28.25081 | 33.11536 | 36832 ft | 508 kts | 160° |
| 2026-04-29 17:53 | 28.21939 | 33.13308 | 35755 ft | 502 kts | 160° |
| 2026-04-29 17:54 | 28.18815 | 33.15065 | 34390 ft | 502 kts | 160° |
| 2026-04-29 17:54 | 28.15686 | 33.16820 | 32824 ft | 502 kts | 160° |
| 2026-04-29 17:54 | 28.12542 | 33.18583 | 31252 ft | 505 kts | 159° |
| 2026-04-29 17:54 | 28.09408 | 33.20339 | 29905 ft | 502 kts | 159° |
| 2026-04-29 17:55 | 28.06290 | 33.22082 | 28527 ft | 497 kts | 159° |
| 2026-04-29 17:55 | 28.03204 | 33.23804 | 27392 ft | 489 kts | 159° |
| 2026-04-29 17:55 | 28.00211 | 33.25476 | 26807 ft | 470 kts | 159° |
| 2026-04-29 17:55 | 27.97305 | 33.27103 | 26173 ft | 465 kts | 159° |
| 2026-04-29 17:56 | 27.94413 | 33.28718 | 25541 ft | 463 kts | 159° |
| 2026-04-29 17:56 | 27.91533 | 33.30324 | 24932 ft | 461 kts | 159° |
| 2026-04-29 17:56 | 27.88662 | 33.31924 | 24323 ft | 459 kts | 159° |
| 2026-04-29 17:56 | 27.85802 | 33.33513 | 23745 ft | 457 kts | 158° |
| 2026-04-29 17:57 | 27.82957 | 33.35095 | 23119 ft | 455 kts | 158° |
| 2026-04-29 17:57 | 27.80132 | 33.36668 | 22574 ft | 450 kts | 158° |
| 2026-04-29 17:57 | 27.77333 | 33.38224 | 22039 ft | 446 kts | 158° |
| 2026-04-29 17:57 | 27.75495 | 33.39245 | 21685 ft | 444 kts | 158° |
| 2026-04-29 17:58 | 27.71844 | 33.41275 | 20972 ft | 440 kts | 157° |
| 2026-04-29 17:58 | 27.69103 | 33.42800 | 20436 ft | 438 kts | 157° |
| 2026-04-29 17:58 | 27.66381 | 33.44314 | 19884 ft | 436 kts | 157° |
| 2026-04-29 17:58 | 27.63668 | 33.45824 | 19330 ft | 434 kts | 156° |
| 2026-04-29 17:59 | 27.60984 | 33.47316 | 18760 ft | 423 kts | 156° |
| 2026-04-29 17:59 | 27.58388 | 33.48753 | 18219 ft | 408 kts | 156° |
| 2026-04-29 17:59 | 27.55885 | 33.50137 | 17643 ft | 394 kts | 156° |
| 2026-04-29 17:59 | 27.53466 | 33.51474 | 17159 ft | 379 kts | 156° |
| 2026-04-29 18:00 | 27.51139 | 33.52753 | 16721 ft | 365 kts | 157° |
| 2026-04-29 18:00 | 27.48834 | 33.53939 | 16268 ft | 362 kts | 159° |
| 2026-04-29 18:00 | 27.46533 | 33.55058 | 15831 ft | 359 kts | 159° |
| 2026-04-29 18:00 | 27.44242 | 33.56142 | 15394 ft | 354 kts | 160° |
| 2026-04-29 18:01 | 27.41979 | 33.57209 | 14967 ft | 355 kts | 159° |
| 2026-04-29 18:01 | 27.39734 | 33.58276 | 14538 ft | 355 kts | 159° |
| 2026-04-29 18:01 | 27.37430 | 33.59379 | 14091 ft | 355 kts | 159° |
| 2026-04-29 18:01 | 27.35166 | 33.60396 | 13644 ft | 354 kts | 165° |
| 2026-04-29 18:02 | 27.32794 | 33.61123 | 13162 ft | 352 kts | 167° |
| 2026-04-29 18:02 | 27.30432 | 33.61824 | 12699 ft | 350 kts | 167° |
| 2026-04-29 18:02 | 27.28083 | 33.62520 | 12254 ft | 348 kts | 167° |
| 2026-04-29 18:02 | 27.25737 | 33.63215 | 11787 ft | 347 kts | 167° |
| 2026-04-29 18:03 | 27.23405 | 33.63907 | 11323 ft | 346 kts | 167° |
| 2026-04-29 18:03 | 27.21078 | 33.64599 | 10857 ft | 345 kts | 166° |
| 2026-04-29 18:03 | 27.18757 | 33.65292 | 10383 ft | 344 kts | 166° |
| 2026-04-29 18:03 | 27.16477 | 33.65971 | 10237 ft | 332 kts | 166° |
| 2026-04-29 18:04 | 27.14318 | 33.66613 | 9980 ft | 314 kts | 166° |
| 2026-04-29 18:04 | 27.12240 | 33.67228 | 9481 ft | 305 kts | 166° |
| 2026-04-29 18:04 | 27.10200 | 33.67830 | 8863 ft | 301 kts | 166° |
| 2026-04-29 18:04 | 27.08186 | 33.68428 | 8164 ft | 299 kts | 166° |
| 2026-04-29 18:05 | 27.06857 | 33.68822 | 7737 ft | 297 kts | 166° |
| 2026-04-29 18:05 | 27.04191 | 33.69609 | 6886 ft | 294 kts | 166° |
| 2026-04-29 18:05 | 27.02219 | 33.70193 | 6264 ft | 292 kts | 166° |
| 2026-04-29 18:05 | 27.00363 | 33.71060 | 5706 ft | 285 kts | 144° |
| 2026-04-29 18:06 | 26.98999 | 33.72524 | 5582 ft | 261 kts | 123° |
| 2026-04-29 18:06 | 26.98230 | 33.74233 | 5435 ft | 239 kts | 103° |
| 2026-04-29 18:06 | 26.98004 | 33.76032 | 5147 ft | 229 kts | 84° |
| 2026-04-29 18:06 | 26.98120 | 33.77814 | 4715 ft | 225 kts | 75° |
| 2026-04-29 18:07 | 26.98457 | 33.79492 | 4266 ft | 222 kts | 71° |
| 2026-04-29 18:07 | 26.98872 | 33.81144 | 3793 ft | 218 kts | 62° |
| 2026-04-29 18:07 | 26.99404 | 33.82728 | 3359 ft | 218 kts | 67° |
| 2026-04-29 18:07 | 26.99904 | 33.84327 | 2902 ft | 213 kts | 53° |
| 2026-04-29 18:08 | 27.00905 | 33.85425 | 2443 ft | 195 kts | 14° |
| 2026-04-29 18:08 | 27.02138 | 33.85351 | 2231 ft | 170 kts | 328° |
| 2026-04-29 18:08 | 27.02986 | 33.84590 | 2189 ft | 147 kts | 327° |
| 2026-04-29 18:08 | 27.03926 | 33.84303 | 2209 ft | 138 kts | 346° |
| 2026-04-29 18:09 | 27.04824 | 33.84000 | 2141 ft | 133 kts | 341° |
| 2026-04-29 18:09 | 27.05709 | 33.83711 | 2025 ft | 132 kts | 342° |
| 2026-04-29 18:09 | 27.06592 | 33.83437 | 1885 ft | 131 kts | 343° |
| 2026-04-29 18:09 | 27.07468 | 33.83171 | 1717 ft | 131 kts | 343° |
| 2026-04-29 18:10 | 27.08339 | 33.82911 | 1558 ft | 131 kts | 340° |
| 2026-04-29 18:10 | 27.09216 | 33.82651 | 1387 ft | 130 kts | 340° |
| 2026-04-29 18:10 | 27.10090 | 33.82392 | 1235 ft | 130 kts | 343° |
| 2026-04-29 18:10 | 27.10967 | 33.82133 | 1069 ft | 130 kts | 344° |
| 2026-04-29 18:11 | 27.11836 | 33.81876 | 905 ft | 129 kts | 344° |
| 2026-04-29 18:11 | 27.12709 | 33.81618 | 744 ft | 130 kts | 342° |
| 2026-04-29 18:11 | 27.13579 | 33.81362 | 591 ft | 129 kts | 341° |
| 2026-04-29 18:11 | 27.14443 | 33.81107 | 400 ft | 128 kts | 342° |
| 2026-04-29 18:12 | 27.15309 | 33.80850 | 248 ft | 129 kts | 345° |
| 2026-04-29 18:12 | 27.16178 | 33.80594 | 67 ft | 128 kts | 346° |
| 2026-04-29 18:12 | 27.16942 | 33.80370 | 44 ft | 92 kts | 345° |
| 2026-04-29 18:12 | 27.17418 | 33.80229 | 46 ft | 59 kts | 345° |
| 2026-04-29 18:13 | 27.17773 | 33.80126 | 47 ft | 47 kts | 345° |
| 2026-04-29 18:13 | 27.18058 | 33.80039 | 44 ft | 39 kts | 345° |
| 2026-04-29 18:13 | 27.18308 | 33.79966 | 43 ft | 35 kts | 346° |
| 2026-04-29 18:13 | 27.18465 | 33.79976 | 43 ft | 9 kts | 70° |
| 2026-04-29 18:14 | 27.18469 | 33.80034 | 42 ft | 7 kts | 81° |
| 2026-04-29 18:14 | 27.18489 | 33.80067 | 42 ft | 5 kts | 30° |
| 2026-04-29 18:14 | 27.18526 | 33.80078 | 45 ft | 9 kts | 13° |
| 2026-04-29 18:14 | 27.18568 | 33.80128 | 46 ft | 10 kts | 75° |
| 2026-04-29 18:15 | 27.18584 | 33.80198 | 44 ft | 8 kts | 75° |
| 2026-04-29 18:15 | 27.18603 | 33.80274 | 46 ft | 12 kts | 75° |
| 2026-04-29 18:15 | 27.18636 | 33.80365 | 46 ft | 11 kts | 32° |
| 2026-04-29 18:15 | 27.18717 | 33.80349 | 45 ft | 13 kts | 344° |
| 2026-04-29 18:16 | 27.18767 | 33.80361 | 45 ft | 8 kts | 68° |
| 2026-04-29 18:16 | 27.18777 | 33.80404 | 46 ft | 2 kts | 75° |
| 2026-04-29 18:16 | 27.18780 | 33.80415 | 46 ft | 1 kts | 77° |
| 2026-04-29 18:16 | 27.18780 | 33.80421 | 46 ft | 0 kts | 81° |